createdAt,value
2022-10-09T00:01:49.004Z,4.32
2022-10-09T00:04:15.519Z,4.43
2022-10-09T00:06:42.056Z,4.13
2022-10-09T00:09:08.619Z,4.22
2022-10-09T00:11:35.205Z,5.32
2022-10-09T00:14:02.887Z,4.95
2022-10-09T00:16:31.021Z,4.90
2022-10-09T00:18:57.919Z,5.38
2022-10-09T00:21:26.752Z,5.90
2022-10-09T00:23:55.529Z,6.63
2022-10-09T00:26:22.330Z,6.20
2022-10-09T00:28:49.196Z,7.22
2022-10-09T00:31:16.592Z,7.07
2022-10-09T00:33:44.893Z,5.60
2022-10-09T00:36:13.734Z,6.20
2022-10-09T00:38:40.296Z,6.57
2022-10-09T00:41:08.068Z,5.88
2022-10-09T00:43:44.109Z,5.35
2022-10-09T00:46:20.683Z,6.10
2022-10-09T00:48:55.940Z,5.72
2022-10-09T00:51:23.018Z,7.03
2022-10-09T00:53:49.987Z,5.95
2022-10-09T00:56:16.623Z,6.32
2022-10-09T00:58:43.219Z,6.22
2022-10-09T01:01:09.916Z,6.55
2022-10-09T01:03:36.483Z,7.13
2022-10-09T01:06:10.951Z,6.22
2022-10-09T01:08:43.295Z,6.53
2022-10-09T01:11:15.669Z,5.97
2022-10-09T01:13:50.130Z,7.00
2022-10-09T01:16:24.011Z,7.00
2022-10-09T01:18:57.267Z,5.32
2022-10-09T01:21:28.233Z,7.65
2022-10-09T01:24:08.075Z,6.63
2022-10-09T01:26:58.891Z,6.13
2022-10-09T01:29:31.875Z,5.97
2022-10-09T01:31:59.803Z,6.22
2022-10-09T01:34:27.402Z,6.32
2022-10-09T01:36:56.751Z,7.30
2022-10-09T01:39:28.984Z,7.38
2022-10-09T01:41:57.561Z,7.88
2022-10-09T01:44:26.218Z,6.82
2022-10-09T01:46:53.382Z,7.28
2022-10-09T01:49:35.529Z,7.18
2022-10-09T01:52:11.333Z,7.38
2022-10-09T01:54:44.299Z,7.53
2022-10-09T01:57:18.248Z,7.40
2022-10-09T01:59:47.726Z,7.25
2022-10-09T02:02:14.612Z,7.65
2022-10-09T02:04:43.476Z,8.27
2022-10-09T02:07:10.496Z,8.35
2022-10-09T02:09:39.339Z,8.20
2022-10-09T02:12:09.859Z,8.35
2022-10-09T02:14:37.824Z,8.10
2022-10-09T02:17:08.919Z,7.57
2022-10-09T02:19:40.608Z,7.68
2022-10-09T02:22:12.923Z,7.80
2022-10-09T02:24:40.685Z,7.47
2022-10-09T02:27:08.400Z,8.70
2022-10-09T02:29:35.212Z,7.93
2022-10-09T02:32:03.136Z,8.88
2022-10-09T02:34:29.670Z,8.60
2022-10-09T02:36:56.207Z,8.48
2022-10-09T02:39:22.830Z,8.05
2022-10-09T02:41:49.383Z,9.20
2022-10-09T02:44:15.903Z,9.75
2022-10-09T02:46:42.498Z,7.80
2022-10-09T02:49:10.395Z,7.68
2022-10-09T02:51:37.064Z,7.85
2022-10-09T02:54:04.047Z,7.03
2022-10-09T02:56:30.665Z,7.13
2022-10-09T02:58:57.308Z,10.95
2022-10-09T03:01:23.957Z,7.80
2022-10-09T03:03:50.865Z,7.85
2022-10-09T03:06:21.227Z,7.80
2022-10-09T03:08:49.511Z,7.07
2022-10-09T03:11:17.729Z,6.78
2022-10-09T03:13:44.727Z,6.10
2022-10-09T03:16:13.858Z,5.80
2022-10-09T03:18:40.819Z,5.80
2022-10-09T03:21:08.331Z,5.10
2022-10-09T03:23:36.773Z,4.80
2022-10-09T03:26:06.188Z,3.40
2022-10-09T03:28:35.432Z,3.97
2022-10-09T03:31:02.188Z,4.03
2022-10-09T03:33:28.753Z,3.92
2022-10-09T03:35:55.338Z,3.42
2022-10-09T03:38:21.854Z,3.58
2022-10-09T03:40:49.771Z,4.20
2022-10-09T03:43:16.307Z,4.00
2022-10-09T03:45:43.278Z,3.65
2022-10-09T03:48:11.684Z,3.63
2022-10-09T03:50:38.620Z,3.33
2022-10-09T03:53:05.189Z,3.60
2022-10-09T03:55:35.916Z,3.40
2022-10-09T03:58:04.147Z,3.70
2022-10-09T04:00:30.958Z,3.60
2022-10-09T04:02:57.682Z,3.22
2022-10-09T04:05:24.340Z,3.60
2022-10-09T04:07:50.927Z,3.70
2022-10-09T04:10:17.701Z,4.10
2022-10-09T04:12:44.833Z,4.03
2022-10-09T04:15:12.705Z,3.65
2022-10-09T04:17:39.253Z,4.28
2022-10-09T04:20:06.548Z,3.70
2022-10-09T04:22:33.091Z,3.63
2022-10-09T04:24:59.623Z,3.83
2022-10-09T04:27:26.159Z,4.00
2022-10-09T04:29:52.683Z,3.85
2022-10-09T04:32:21.076Z,3.35
2022-10-09T04:34:47.654Z,3.60
2022-10-09T04:37:14.223Z,3.97
2022-10-09T04:39:40.753Z,3.33
2022-10-09T04:42:07.828Z,3.47
2022-10-09T04:44:34.399Z,3.83
2022-10-09T04:47:00.924Z,3.70
2022-10-09T04:49:28.836Z,4.35
2022-10-09T04:51:55.435Z,3.08
2022-10-09T04:54:21.976Z,3.55
2022-10-09T04:56:48.483Z,3.40
2022-10-09T04:59:15.051Z,3.67
2022-10-09T05:01:41.672Z,3.42
2022-10-09T05:04:08.704Z,4.55
2022-10-09T05:06:36.659Z,3.67
2022-10-09T05:09:03.347Z,3.45
2022-10-09T05:11:29.902Z,3.58
2022-10-09T05:13:58.004Z,3.38
2022-10-09T05:16:26.252Z,3.67
2022-10-09T05:18:55.211Z,3.35
2022-10-09T05:21:22.209Z,3.17
2022-10-09T05:23:51.023Z,3.55
2022-10-09T05:26:19.852Z,3.55
2022-10-09T05:28:46.987Z,3.08
2022-10-09T05:31:18.343Z,3.13
2022-10-09T05:33:45.180Z,3.75
2022-10-09T05:36:11.816Z,4.65
2022-10-09T05:38:38.331Z,2.85
2022-10-09T05:41:09.879Z,3.45
2022-10-09T05:43:38.331Z,3.80
2022-10-09T05:46:06.714Z,3.22
2022-10-09T05:48:33.519Z,3.60
2022-10-09T05:51:11.479Z,3.47
2022-10-09T05:53:38.163Z,3.83
2022-10-09T05:56:14.352Z,3.67
2022-10-09T05:58:41.144Z,3.45
2022-10-09T06:01:07.712Z,3.58
2022-10-09T06:03:34.527Z,3.45
2022-10-09T06:06:01.394Z,4.05
2022-10-09T06:08:28.037Z,3.58
2022-10-09T06:10:54.553Z,3.22
2022-10-09T06:13:22.607Z,3.53
2022-10-09T06:15:52.831Z,3.30
2022-10-09T06:18:19.363Z,3.33
2022-10-09T06:20:53.344Z,3.20
2022-10-09T06:23:19.863Z,3.00
2022-10-09T06:25:51.743Z,2.75
2022-10-09T06:28:18.303Z,3.35
2022-10-09T06:30:46.425Z,2.83
2022-10-09T06:33:13.299Z,3.58
2022-10-09T06:35:39.872Z,3.05
2022-10-09T06:38:06.423Z,4.07
2022-10-09T06:40:34.960Z,3.10
2022-10-09T06:43:01.492Z,3.45
2022-10-09T06:45:28.043Z,3.15
2022-10-09T06:47:55.995Z,3.10
2022-10-09T06:50:22.650Z,3.42
2022-10-09T06:52:49.419Z,3.35
2022-10-09T06:55:16.248Z,2.90
2022-10-09T06:57:42.807Z,3.13
2022-10-09T07:00:10.383Z,3.33
2022-10-09T07:02:41.798Z,3.45
2022-10-09T07:05:11.739Z,3.10
2022-10-09T07:07:40.069Z,2.95
2022-10-09T07:10:07.465Z,3.75
2022-10-09T07:12:37.857Z,3.65
2022-10-09T07:15:06.268Z,3.47
2022-10-09T07:17:33.043Z,3.15
2022-10-09T07:19:59.584Z,3.60
2022-10-09T07:22:27.495Z,3.35
2022-10-09T07:24:54.024Z,3.45
2022-10-09T07:27:20.600Z,2.88
2022-10-09T07:29:47.262Z,3.80
2022-10-09T07:32:13.808Z,3.20
2022-10-09T07:34:40.311Z,3.50
2022-10-09T07:37:06.830Z,3.58
2022-10-09T07:39:34.753Z,3.13
2022-10-09T07:42:01.305Z,3.30
2022-10-09T07:44:27.847Z,3.75
2022-10-09T07:46:54.352Z,3.22
2022-10-09T07:49:21.064Z,3.17
2022-10-09T07:51:47.623Z,2.70
2022-10-09T07:54:14.298Z,3.65
2022-10-09T07:56:42.153Z,2.72
2022-10-09T07:59:12.921Z,3.10
2022-10-09T08:01:39.719Z,3.60
2022-10-09T08:04:06.424Z,3.70
2022-10-09T08:06:33.541Z,3.78
2022-10-09T08:09:02.182Z,3.58
2022-10-09T08:11:29.862Z,3.40
2022-10-09T08:13:57.989Z,3.42
2022-10-09T08:16:26.485Z,3.58
2022-10-09T08:18:55.547Z,3.22
2022-10-09T08:21:22.047Z,3.42
2022-10-09T08:23:52.730Z,3.13
2022-10-09T08:26:21.303Z,3.92
2022-10-09T08:28:50.366Z,3.35
2022-10-09T08:31:18.979Z,3.78
2022-10-09T08:33:45.839Z,3.78
2022-10-09T08:36:14.156Z,4.25
2022-10-09T08:38:48.657Z,4.18
2022-10-09T08:41:26.739Z,3.92
2022-10-09T08:44:01.019Z,4.03
2022-10-09T08:46:47.616Z,4.00
2022-10-09T08:49:21.726Z,4.20
2022-10-09T08:51:48.560Z,4.22
2022-10-09T08:54:21.875Z,3.55
2022-10-09T08:56:50.627Z,4.03
2022-10-09T08:59:17.172Z,4.75
2022-10-09T09:01:49.859Z,5.00
2022-10-09T09:04:33.543Z,4.70
2022-10-09T09:07:08.585Z,3.88
2022-10-09T09:09:45.433Z,4.68
2022-10-09T09:12:18.478Z,4.47
2022-10-09T09:15:01.243Z,4.38
2022-10-09T09:17:37.867Z,4.93
2022-10-09T09:20:14.941Z,4.20
2022-10-09T09:22:47.314Z,4.18
2022-10-09T09:25:19.225Z,4.45
2022-10-09T09:27:46.095Z,4.88
2022-10-09T09:30:18.110Z,4.15
2022-10-09T09:32:55.303Z,4.20
2022-10-09T09:35:28.438Z,4.60
2022-10-09T09:37:55.394Z,4.82
2022-10-09T09:40:36.067Z,3.85
2022-10-09T09:43:11.660Z,4.10
2022-10-09T09:45:38.191Z,3.65
2022-10-09T09:48:11.012Z,3.70
2022-10-09T09:50:56.227Z,3.75
2022-10-09T09:53:30.203Z,3.55
2022-10-09T09:55:57.055Z,4.07
2022-10-09T09:58:29.696Z,3.92
2022-10-09T10:00:59.133Z,3.67
2022-10-09T10:03:27.699Z,3.88
2022-10-09T10:05:54.427Z,4.60
2022-10-09T10:08:24.339Z,3.80
2022-10-09T10:10:52.759Z,3.40
2022-10-09T10:13:21.615Z,3.55
2022-10-09T10:15:52.350Z,3.50
2022-10-09T10:18:19.911Z,3.35
2022-10-09T10:20:50.689Z,3.20
2022-10-09T10:23:30.469Z,3.08
2022-10-09T10:25:58.930Z,3.78
2022-10-09T10:28:31.226Z,3.00
2022-10-09T10:31:02.533Z,3.40
2022-10-09T10:33:32.980Z,3.15
2022-10-09T10:36:01.035Z,3.13
2022-10-09T10:38:33.414Z,1.10
2022-10-09T10:41:09.219Z,0.85
2022-10-09T10:43:41.653Z,0.60
2022-10-09T10:46:17.081Z,0.90
2022-10-09T10:48:45.585Z,0.70
2022-10-09T10:51:38.280Z,0.67
2022-10-09T10:54:17.380Z,0.80
2022-10-09T10:56:48.519Z,0.77
2022-10-09T10:59:34.915Z,0.75
2022-10-09T11:02:24.204Z,0.60
2022-10-09T11:04:56.258Z,0.80
2022-10-09T11:07:30.998Z,0.80
2022-10-09T11:10:02.804Z,0.60
2022-10-09T11:12:48.274Z,0.95
2022-10-09T11:15:24.797Z,0.50
2022-10-09T11:17:58.773Z,0.70
2022-10-09T11:20:57.317Z,0.70
2022-10-09T11:23:39.399Z,0.55
2022-10-09T11:26:16.847Z,0.75
2022-10-09T11:28:49.066Z,0.80
2022-10-09T11:31:19.508Z,0.70
2022-10-09T11:33:49.318Z,0.73
2022-10-09T11:36:20.098Z,0.80
2022-10-09T11:38:52.905Z,1.10
2022-10-09T11:41:20.160Z,0.80
2022-10-09T11:43:58.740Z,0.80
2022-10-09T11:46:38.497Z,1.05
2022-10-09T11:49:11.391Z,0.50
2022-10-09T11:51:44.549Z,0.82
2022-10-09T11:54:14.910Z,0.95
2022-10-09T11:56:52.968Z,0.83
2022-10-09T11:59:22.627Z,0.73
2022-10-09T12:01:49.259Z,0.50
2022-10-09T12:04:37.469Z,0.63
2022-10-09T12:07:11.618Z,0.60
2022-10-09T12:09:42.713Z,0.80
2022-10-09T12:12:22.675Z,0.60
2022-10-09T12:14:51.924Z,0.73
2022-10-09T12:17:38.787Z,0.80
2022-10-09T12:20:15.386Z,0.70
2022-10-09T12:22:56.462Z,0.83
2022-10-09T12:25:43.752Z,0.68
2022-10-09T12:28:19.727Z,0.73
2022-10-09T12:30:49.001Z,0.80
2022-10-09T12:33:24.146Z,0.85
2022-10-09T12:36:00.804Z,0.87
2022-10-09T12:38:29.778Z,0.90
2022-10-09T12:41:01.053Z,0.70
2022-10-09T12:43:33.913Z,1.08
2022-10-09T12:49:01.934Z,0.93
2022-10-09T12:51:30.307Z,1.10
2022-10-09T12:53:56.968Z,0.80
2022-10-09T12:56:28.182Z,0.70
2022-10-09T12:58:55.638Z,0.80
2022-10-09T13:01:22.621Z,0.90
2022-10-09T13:03:54.866Z,0.50
2022-10-09T13:06:23.654Z,0.95
2022-10-09T13:08:53.901Z,1.20
2022-10-09T13:11:24.583Z,0.57
2022-10-09T13:13:54.398Z,0.70
2022-10-09T13:16:23.475Z,0.77
2022-10-09T13:18:56.963Z,1.00
2022-10-09T13:21:26.635Z,0.70
2022-10-09T13:23:54.516Z,0.80
2022-10-09T13:26:30.892Z,0.63
2022-10-09T13:28:59.808Z,0.60
2022-10-09T13:31:26.355Z,0.73
2022-10-09T13:33:52.935Z,0.80
2022-10-09T13:36:20.306Z,0.70
2022-10-09T13:38:47.695Z,0.70
2022-10-09T13:41:17.725Z,0.80
2022-10-09T13:43:44.579Z,0.85
2022-10-09T13:46:13.621Z,0.60
2022-10-09T13:48:40.179Z,0.60
2022-10-09T13:51:06.888Z,0.70
2022-10-09T13:53:33.593Z,0.98
2022-10-09T13:56:01.193Z,0.70
2022-10-09T13:58:28.159Z,0.70
2022-10-09T14:00:54.788Z,0.70
2022-10-09T14:03:22.684Z,0.70
2022-10-09T14:05:49.264Z,1.10
2022-10-09T14:08:15.783Z,0.70
2022-10-09T14:10:42.615Z,0.63
2022-10-09T14:13:09.507Z,0.50
2022-10-09T14:15:39.063Z,0.60
2022-10-09T14:18:05.672Z,0.60
2022-10-09T14:20:33.880Z,0.77
2022-10-09T14:23:00.418Z,0.93
2022-10-09T14:25:27.300Z,0.60
2022-10-09T14:27:53.847Z,0.70
2022-10-09T14:30:20.380Z,1.00
2022-10-09T14:32:47.211Z,0.80
2022-10-09T14:35:16.958Z,0.82
2022-10-09T14:37:47.370Z,0.60
2022-10-09T14:40:13.900Z,0.60
2022-10-09T14:42:40.571Z,0.80
2022-10-09T14:45:08.655Z,0.82
2022-10-09T14:47:35.223Z,0.82
2022-10-09T14:50:01.983Z,0.55
2022-10-09T14:52:28.524Z,0.50
2022-10-09T14:54:56.531Z,0.90
2022-10-09T14:57:23.046Z,0.80
2022-10-09T14:59:49.588Z,0.68
2022-10-09T15:02:16.527Z,0.77
2022-10-09T15:04:43.211Z,0.80
2022-10-09T15:07:09.800Z,0.80
2022-10-09T15:09:36.315Z,1.40
2022-10-09T15:12:04.355Z,0.75
2022-10-09T15:14:30.872Z,0.80
2022-10-09T15:16:57.406Z,0.90
2022-10-09T15:19:23.935Z,0.90
2022-10-09T15:21:50.492Z,0.80
2022-10-09T15:24:17.044Z,0.70
2022-10-09T15:26:43.608Z,0.80
2022-10-09T15:29:12.035Z,0.87
2022-10-09T15:31:40.663Z,1.02
2022-10-09T15:34:08.039Z,0.60
2022-10-09T15:36:36.594Z,0.80
2022-10-09T15:39:04.382Z,0.80
2022-10-09T15:41:32.801Z,0.80
2022-10-09T15:44:01.466Z,0.85
2022-10-09T15:46:30.149Z,1.05
2022-10-09T15:48:57.237Z,0.80
2022-10-09T15:51:24.284Z,0.90
2022-10-09T15:53:52.405Z,0.90
2022-10-09T15:56:20.684Z,0.85
2022-10-09T15:58:47.188Z,0.70
2022-10-09T16:01:15.782Z,0.80
2022-10-09T16:03:44.514Z,0.60
2022-10-09T16:06:13.797Z,0.90
2022-10-09T16:08:41.091Z,1.10
2022-10-09T16:11:10.831Z,0.90
2022-10-09T16:13:39.037Z,0.90
2022-10-09T16:16:06.439Z,1.05
2022-10-09T16:18:33.197Z,0.77
2022-10-09T16:21:05.246Z,1.15
2022-10-09T16:23:31.839Z,1.40
2022-10-09T16:25:59.594Z,1.70
2022-10-09T16:28:26.666Z,2.20
2022-10-09T16:30:53.250Z,1.93
2022-10-09T16:33:20.390Z,1.80
2022-10-09T16:35:46.977Z,1.17
2022-10-09T16:38:15.300Z,1.98
2022-10-09T16:41:02.259Z,1.17
2022-10-09T16:43:29.293Z,9.73
2022-10-09T16:45:55.859Z,7.80
2022-10-09T16:48:22.363Z,7.63
2022-10-09T16:50:48.901Z,4.63
2022-10-09T16:53:16.768Z,9.70
2022-10-09T16:55:43.374Z,4.18
2022-10-09T16:58:09.899Z,1.63
2022-10-09T17:00:36.720Z,1.13
2022-10-09T17:03:03.305Z,1.92
2022-10-09T17:05:29.872Z,1.90
2022-10-09T17:07:56.394Z,3.00
2022-10-09T17:10:24.394Z,1.30
2022-10-09T17:12:51.012Z,1.55
2022-10-09T17:15:18.081Z,2.50
2022-10-09T17:17:44.663Z,1.70
2022-10-09T17:20:11.191Z,1.93
2022-10-09T17:22:37.760Z,2.72
2022-10-09T17:25:05.222Z,2.22
2022-10-09T17:27:33.042Z,2.42
2022-10-09T17:29:59.595Z,1.70
2022-10-09T17:32:26.240Z,1.30
2022-10-09T17:34:52.788Z,1.50
2022-10-09T17:37:19.307Z,1.33
2022-10-09T17:39:51.141Z,1.30
2022-10-09T17:42:18.685Z,1.50
2022-10-09T17:44:46.591Z,1.83
2022-10-09T17:47:13.564Z,1.40
2022-10-09T17:49:40.125Z,1.40
2022-10-09T17:52:06.666Z,1.80
2022-10-09T17:54:33.329Z,2.17
2022-10-09T17:56:59.934Z,2.10
2022-10-09T17:59:26.602Z,1.80
2022-10-09T18:01:54.498Z,2.10
2022-10-09T18:04:21.044Z,1.60
2022-10-09T18:06:47.637Z,1.50
2022-10-09T18:09:14.272Z,1.30
2022-10-09T18:11:40.899Z,1.83
2022-10-09T18:14:07.406Z,1.83
2022-10-09T18:16:36.343Z,1.70
2022-10-09T18:19:07.819Z,2.25
2022-10-09T18:21:40.899Z,1.80
2022-10-09T18:24:07.654Z,2.40
2022-10-09T18:26:34.292Z,2.15
2022-10-09T18:29:01.828Z,2.58
2022-10-09T18:31:35.882Z,2.70
2022-10-09T18:34:03.829Z,2.22
2022-10-09T18:36:30.563Z,2.50
2022-10-09T18:38:59.618Z,2.75
2022-10-09T18:41:26.871Z,3.70
2022-10-09T18:43:54.087Z,3.13
2022-10-09T18:46:24.600Z,3.60
2022-10-09T18:48:53.251Z,2.70
2022-10-09T18:51:23.176Z,2.58
2022-10-09T18:53:53.979Z,2.80
2022-10-09T18:56:22.083Z,2.60
2022-10-09T18:58:50.133Z,2.15
2022-10-09T19:01:16.910Z,2.17
2022-10-09T19:03:46.090Z,2.45
2022-10-09T19:06:15.997Z,2.17
2022-10-09T19:08:43.946Z,2.17
2022-10-09T19:11:10.523Z,1.70
2022-10-09T19:13:38.690Z,1.65
2022-10-09T19:16:05.661Z,2.10
2022-10-09T19:18:33.197Z,2.25
2022-10-09T19:21:00.048Z,2.53
2022-10-09T19:23:26.596Z,2.15
2022-10-09T19:25:56.883Z,3.38
2022-10-09T19:28:25.947Z,3.13
2022-10-09T19:30:52.717Z,4.05
2022-10-09T19:33:19.384Z,4.38
2022-10-09T19:35:52.100Z,5.93
2022-10-09T19:38:19.586Z,5.55
2022-10-09T19:40:46.346Z,5.57
2022-10-09T19:43:15.586Z,6.85
2022-10-09T19:45:42.768Z,5.60
2022-10-09T19:48:09.795Z,6.10
2022-10-09T19:50:40.295Z,6.53
2022-10-09T19:53:07.053Z,6.30
2022-10-09T19:55:34.008Z,6.03
2022-10-09T19:58:00.550Z,5.97
2022-10-09T20:00:28.641Z,6.13
2022-10-09T20:02:55.415Z,6.85
2022-10-09T20:05:22.416Z,6.80
2022-10-09T20:07:49.265Z,5.90
2022-10-09T20:10:15.964Z,6.07
2022-10-09T20:12:42.514Z,6.45
2022-10-09T20:15:10.075Z,6.75
2022-10-09T20:17:37.968Z,6.40
2022-10-09T20:20:04.958Z,7.75
2022-10-09T20:22:31.627Z,7.70
2022-10-09T20:24:58.225Z,7.90
2022-10-09T20:27:24.827Z,6.47
2022-10-09T20:29:52.272Z,6.55
2022-10-09T20:32:18.778Z,6.30
2022-10-09T20:34:46.622Z,5.78
2022-10-09T20:37:13.186Z,6.13
2022-10-09T20:39:45.596Z,5.72
2022-10-09T20:42:12.115Z,5.38
2022-10-09T20:44:38.652Z,6.30
2022-10-09T20:47:05.159Z,6.28
2022-10-09T20:49:31.738Z,7.13
2022-10-09T20:51:59.629Z,6.50
2022-10-09T20:54:26.959Z,6.45
2022-10-09T20:56:53.480Z,5.90
2022-10-09T20:59:20.009Z,5.70
2022-10-09T21:01:46.663Z,6.32
2022-10-09T21:04:13.399Z,5.70
2022-10-09T21:06:40.459Z,5.88
2022-10-09T21:09:08.484Z,4.75
2022-10-09T21:11:35.009Z,5.05
2022-10-09T21:14:01.978Z,4.68
2022-10-09T21:16:28.600Z,4.38
2022-10-09T21:18:56.979Z,4.03
2022-10-09T21:21:24.659Z,3.88
2022-10-09T21:23:52.494Z,3.42
2022-10-09T21:26:22.029Z,3.30
2022-10-09T21:28:49.607Z,3.90
2022-10-09T21:31:18.514Z,3.22
2022-10-09T21:33:45.361Z,3.40
2022-10-09T21:36:16.027Z,3.60
2022-10-09T21:38:42.588Z,3.47
2022-10-09T21:41:09.314Z,3.47
2022-10-09T21:43:37.224Z,4.00
2022-10-09T21:46:03.791Z,3.65
2022-10-09T21:48:30.448Z,3.40
2022-10-09T21:50:57.274Z,3.90
2022-10-09T21:53:23.796Z,3.33
2022-10-09T21:55:50.319Z,4.10
2022-10-09T21:58:16.862Z,3.67
2022-10-09T22:00:50.831Z,3.75
2022-10-09T22:03:17.423Z,3.65
2022-10-09T22:05:43.932Z,4.47
2022-10-09T22:08:10.430Z,3.70
2022-10-09T22:10:39.512Z,3.20
2022-10-09T22:13:06.007Z,3.78
2022-10-09T22:15:32.574Z,3.75
2022-10-09T22:18:00.459Z,3.42
2022-10-09T22:20:27.006Z,3.40
2022-10-09T22:22:53.718Z,2.92
2022-10-09T22:25:20.300Z,3.33
2022-10-09T22:27:46.828Z,3.40
2022-10-09T22:30:13.627Z,3.33
2022-10-09T22:32:40.210Z,3.50
2022-10-09T22:35:08.720Z,2.78
2022-10-09T22:37:35.245Z,3.80
2022-10-09T22:40:01.741Z,3.70
2022-10-09T22:42:28.259Z,3.10
2022-10-09T22:44:54.772Z,3.17
2022-10-09T22:47:21.412Z,3.70
2022-10-09T22:49:49.735Z,3.70
2022-10-09T22:52:17.615Z,3.10
2022-10-09T22:54:44.152Z,3.60
2022-10-09T22:57:10.655Z,3.95
2022-10-09T22:59:37.183Z,3.38
2022-10-09T23:02:04.014Z,3.30
2022-10-09T23:04:30.559Z,3.17
2022-10-09T23:06:58.513Z,3.40
2022-10-09T23:09:28.519Z,3.50
2022-10-09T23:11:55.434Z,3.33
2022-10-09T23:14:22.740Z,3.58
2022-10-09T23:16:49.820Z,4.22
2022-10-09T23:19:17.260Z,3.28
2022-10-09T23:21:45.799Z,3.85
2022-10-09T23:24:14.425Z,3.20
2022-10-09T23:26:42.315Z,3.30
2022-10-09T23:29:13.736Z,3.65
2022-10-09T23:31:40.271Z,3.85
2022-10-09T23:34:07.163Z,3.33
2022-10-09T23:36:33.834Z,3.55
2022-10-09T23:39:03.009Z,3.70
2022-10-09T23:41:29.993Z,3.95
2022-10-09T23:43:57.906Z,4.18
2022-10-09T23:46:27.434Z,3.50
2022-10-09T23:48:54.799Z,3.33
2022-10-09T23:51:23.649Z,3.47
2022-10-09T23:53:50.204Z,4.00
2022-10-09T23:56:22.757Z,3.30
2022-10-09T23:58:49.367Z,3.25
